createdAt,value
2022-10-04T00:01:45.127Z,6.50
2022-10-04T00:04:21.546Z,6.50
2022-10-04T00:07:03.332Z,6.60
2022-10-04T00:10:10.600Z,6.60
2022-10-04T00:12:41.649Z,6.60
2022-10-04T00:15:22.309Z,6.70
2022-10-04T00:18:22.827Z,6.70
2022-10-04T00:20:50.517Z,6.70
2022-10-04T00:23:23.518Z,6.70
2022-10-04T00:25:56.357Z,6.70
2022-10-04T00:28:26.169Z,6.70
2022-10-04T00:31:13.708Z,6.60
2022-10-04T00:33:45.036Z,6.60
2022-10-04T00:36:26.433Z,6.60
2022-10-04T00:39:05.564Z,6.70
2022-10-04T00:41:47.430Z,6.70
2022-10-04T00:44:47.089Z,6.70
2022-10-04T00:47:49.414Z,6.70
2022-10-04T00:50:27.530Z,6.70
2022-10-04T00:52:58.529Z,6.70
2022-10-04T00:55:46.041Z,6.70
2022-10-04T00:58:20.556Z,6.70
2022-10-04T01:00:49.116Z,6.70
2022-10-04T01:03:30.893Z,6.60
2022-10-04T01:06:02.011Z,6.60
2022-10-04T01:08:34.385Z,6.50
2022-10-04T01:11:07.005Z,6.40
2022-10-04T01:13:46.309Z,6.30
2022-10-04T01:16:25.113Z,6.30
2022-10-04T01:18:52.315Z,6.20
2022-10-04T01:21:21.896Z,6.20
2022-10-04T01:23:57.824Z,6.20
2022-10-04T01:26:30.434Z,6.20
2022-10-04T01:29:10.081Z,6.10
2022-10-04T01:31:44.817Z,6.10
2022-10-04T01:34:18.069Z,6.10
2022-10-04T01:36:47.253Z,6.10
2022-10-04T01:39:16.682Z,6.00
2022-10-04T01:41:54.102Z,6.00
2022-10-04T01:44:24.249Z,6.00
2022-10-04T01:46:54.241Z,6.00
2022-10-04T01:49:25.700Z,5.90
2022-10-04T01:52:08.686Z,5.90
2022-10-04T01:54:41.876Z,5.90
2022-10-04T01:57:17.088Z,5.90
2022-10-04T01:59:52.841Z,5.80
2022-10-04T02:02:26.386Z,5.80
2022-10-04T02:04:56.167Z,5.70
2022-10-04T02:07:26.524Z,5.70
2022-10-04T02:09:59.528Z,5.70
2022-10-04T02:12:28.467Z,5.80
2022-10-04T02:14:56.628Z,5.70
2022-10-04T02:17:30.479Z,5.70
2022-10-04T02:19:59.053Z,5.70
2022-10-04T02:22:26.585Z,5.70
2022-10-04T02:24:56.494Z,5.70
2022-10-04T02:27:29.411Z,5.70
2022-10-04T02:30:06.437Z,5.60
2022-10-04T02:32:52.390Z,5.60
2022-10-04T02:35:20.395Z,5.60
2022-10-04T02:37:58.707Z,5.60
2022-10-04T02:40:31.656Z,5.60
2022-10-04T02:43:13.098Z,5.60
2022-10-04T02:45:50.019Z,5.50
2022-10-04T02:48:37.426Z,5.50
2022-10-04T02:51:37.877Z,5.50
2022-10-04T02:54:29.916Z,5.50
2022-10-04T02:56:58.123Z,5.50
2022-10-04T02:59:25.391Z,5.50
2022-10-04T03:02:00.680Z,5.50
2022-10-04T03:04:31.580Z,5.40
2022-10-04T03:07:02.075Z,5.40
2022-10-04T03:09:30.309Z,5.40
2022-10-04T03:11:57.695Z,5.30
2022-10-04T03:14:27.717Z,5.30
2022-10-04T03:16:57.582Z,5.30
2022-10-04T03:19:26.986Z,5.30
2022-10-04T03:22:01.532Z,5.30
2022-10-04T03:24:34.923Z,5.40
2022-10-04T03:27:07.907Z,5.40
2022-10-04T03:29:39.459Z,5.30
2022-10-04T03:32:06.507Z,5.30
2022-10-04T03:34:44.046Z,5.20
2022-10-04T03:37:16.240Z,5.20
2022-10-04T03:39:47.640Z,5.20
2022-10-04T03:42:24.326Z,5.20
2022-10-04T03:44:54.165Z,5.30
2022-10-04T03:47:34.143Z,5.30
2022-10-04T03:50:13.991Z,5.20
2022-10-04T03:52:46.557Z,5.20
2022-10-04T03:55:16.107Z,5.10
2022-10-04T03:57:43.056Z,5.10
2022-10-04T04:00:15.163Z,5.10
2022-10-04T04:02:48.786Z,5.10
2022-10-04T04:05:26.830Z,5.10
2022-10-04T04:08:20.967Z,5.10
2022-10-04T04:10:52.767Z,5.10
2022-10-04T04:13:31.789Z,5.10
2022-10-04T04:16:02.015Z,5.10
2022-10-04T04:18:33.436Z,5.10
2022-10-04T04:21:02.420Z,5.10
2022-10-04T04:23:41.598Z,5.00
2022-10-04T04:26:14.812Z,5.00
2022-10-04T04:29:19.334Z,5.00
2022-10-04T04:32:05.745Z,4.90
2022-10-04T04:34:44.446Z,4.90
2022-10-04T04:37:11.472Z,4.90
2022-10-04T04:39:38.356Z,4.90
2022-10-04T04:42:10.913Z,4.90
2022-10-04T04:44:55.615Z,4.90
2022-10-04T04:47:33.980Z,4.80
2022-10-04T04:50:13.153Z,4.80
2022-10-04T04:52:43.179Z,4.70
2022-10-04T04:55:22.632Z,4.70
2022-10-04T04:57:51.473Z,4.80
2022-10-04T05:00:20.648Z,4.90
2022-10-04T05:02:58.876Z,4.90
2022-10-04T05:05:27.306Z,4.90
2022-10-04T05:08:16.200Z,4.90
2022-10-04T05:10:58.081Z,4.90
2022-10-04T05:13:48.039Z,4.90
2022-10-04T05:16:19.293Z,4.90
2022-10-04T05:18:46.933Z,4.90
2022-10-04T05:21:15.680Z,4.90
2022-10-04T05:23:42.631Z,5.00
2022-10-04T05:26:14.567Z,5.00
2022-10-04T05:28:42.048Z,5.00
2022-10-04T05:31:29.125Z,5.00
2022-10-04T05:33:58.348Z,5.10
2022-10-04T05:36:47.196Z,5.20
2022-10-04T05:39:25.175Z,5.30
2022-10-04T05:41:57.943Z,5.40
2022-10-04T05:44:31.637Z,5.60
2022-10-04T05:47:05.416Z,5.80
2022-10-04T05:49:46.384Z,5.90
2022-10-04T05:52:34.700Z,6.10
2022-10-04T05:55:21.102Z,6.30
2022-10-04T05:58:35.301Z,6.50
2022-10-04T06:01:23.693Z,6.70
2022-10-04T06:03:50.531Z,7.00
2022-10-04T06:06:30.923Z,7.20
2022-10-04T06:09:09.492Z,7.50
2022-10-04T06:12:02.377Z,8.00
2022-10-04T06:17:19.162Z,10.30
2022-10-04T06:19:59.185Z,11.80
2022-10-04T06:23:07.679Z,11.50
2022-10-04T06:29:16.145Z,10.40
2022-10-04T06:32:26.712Z,10.20
2022-10-04T06:35:21.327Z,9.90
2022-10-04T06:37:54.425Z,9.80
2022-10-04T06:40:42.570Z,9.60
2022-10-04T06:43:43.786Z,9.60
2022-10-04T06:46:42.401Z,9.60
2022-10-04T06:49:26.385Z,9.50
2022-10-04T06:52:16.618Z,9.60
2022-10-04T06:54:47.228Z,9.60
2022-10-04T06:57:26.382Z,9.70
2022-10-04T07:00:12.622Z,9.90
2022-10-04T07:02:54.120Z,10.00
2022-10-04T07:05:42.126Z,10.10
2022-10-04T07:08:34.393Z,10.00
2022-10-04T07:11:25.099Z,10.20
2022-10-04T07:14:12.418Z,10.50
2022-10-04T07:17:16.397Z,10.70
2022-10-04T07:19:53.181Z,10.90
2022-10-04T07:22:33.001Z,11.10
2022-10-04T07:25:47.629Z,11.80
2022-10-04T07:32:34.295Z,12.90
2022-10-04T07:35:35.437Z,13.30
2022-10-04T07:38:35.085Z,13.10
2022-10-04T07:41:08.524Z,13.80
2022-10-04T07:44:14.079Z,15.00
2022-10-04T07:49:50.490Z,16.20
2022-10-04T07:52:26.472Z,16.90
2022-10-04T07:55:12.548Z,16.90
2022-10-04T07:58:14.451Z,16.60
2022-10-04T08:02:04.843Z,16.80
2022-10-04T08:04:53.575Z,16.70
2022-10-04T08:11:55.606Z,16.40
2022-10-04T08:18:55.328Z,17.80
2022-10-04T08:22:13.624Z,17.90
2022-10-04T08:25:03.288Z,17.90
2022-10-04T08:31:37.161Z,18.60
2022-10-04T08:34:43.584Z,19.20
2022-10-04T08:38:10.809Z,18.50
2022-10-04T08:41:24.375Z,18.90
2022-10-04T08:44:25.779Z,18.30
2022-10-04T08:47:09.214Z,18.50
2022-10-04T08:50:29.208Z,19.10
2022-10-04T08:53:36.859Z,18.90
2022-10-04T08:57:41.203Z,19.40
2022-10-04T08:59:51.505Z,19.50
2022-10-04T09:03:07.882Z,19.90
2022-10-04T09:06:20.805Z,18.90
2022-10-04T09:13:26.751Z,18.60
2022-10-04T09:19:20.345Z,18.20
2022-10-04T09:22:20.460Z,18.60
2022-10-04T09:33:10.325Z,17.60
2022-10-04T09:36:13.459Z,17.60
2022-10-04T09:39:56.329Z,17.70
2022-10-04T09:42:42.531Z,18.70
2022-10-04T09:45:37.468Z,18.80
2022-10-04T09:48:53.926Z,19.10
2022-10-04T09:51:43.484Z,19.40
2022-10-04T09:54:15.911Z,19.70
2022-10-04T09:57:36.773Z,19.30
2022-10-04T10:00:12.471Z,19.30
2022-10-04T10:03:04.063Z,19.30
2022-10-04T10:06:51.290Z,19.20
2022-10-04T10:09:14.187Z,19.10
2022-10-04T10:15:28.145Z,19.20
2022-10-04T10:18:05.332Z,19.60
2022-10-04T10:21:18.550Z,19.20
2022-10-04T10:24:25.917Z,19.40
2022-10-04T10:34:19.373Z,18.80
2022-10-04T10:37:57.648Z,18.90
2022-10-04T10:45:18.574Z,19.60
2022-10-04T10:48:45.033Z,19.40
2022-10-04T10:54:51.097Z,19.90
2022-10-04T10:57:37.699Z,21.00
2022-10-04T11:00:18.982Z,22.20
2022-10-04T11:02:52.894Z,23.40
2022-10-04T11:05:35.296Z,23.80
2022-10-04T11:08:36.852Z,24.90
2022-10-04T11:11:34.348Z,25.50
2022-10-04T11:14:37.319Z,24.60
2022-10-04T11:17:13.592Z,23.80
2022-10-04T11:20:08.611Z,22.90
2022-10-04T11:23:28.903Z,22.00
2022-10-04T11:26:39.413Z,21.70
2022-10-04T11:29:28.704Z,21.60
2022-10-04T11:32:31.863Z,20.90
2022-10-04T11:38:52.235Z,20.70
2022-10-04T11:41:40.016Z,20.60
2022-10-04T11:44:29.471Z,20.70
2022-10-04T11:47:09.061Z,20.40
2022-10-04T11:50:02.995Z,21.20
2022-10-04T11:52:57.733Z,21.30
2022-10-04T11:56:13.308Z,21.60
2022-10-04T11:58:46.192Z,22.20
2022-10-04T12:02:01.247Z,22.00
2022-10-04T12:05:36.029Z,22.00
2022-10-04T12:08:21.817Z,22.30
2022-10-04T12:11:53.224Z,21.50
2022-10-04T12:14:32.308Z,21.30
2022-10-04T12:17:42.598Z,21.90
2022-10-04T12:21:02.448Z,22.60
2022-10-04T12:24:00.586Z,24.30
2022-10-04T12:26:59.790Z,25.00
2022-10-04T12:29:45.423Z,24.90
2022-10-04T12:32:26.654Z,25.70
2022-10-04T12:35:12.535Z,25.50
2022-10-04T12:37:53.244Z,25.40
2022-10-04T12:40:34.524Z,24.30
2022-10-04T12:43:10.237Z,24.10
2022-10-04T12:45:50.157Z,24.10
2022-10-04T12:48:39.381Z,23.90
2022-10-04T12:51:28.359Z,24.10
2022-10-04T12:54:27.885Z,23.70
2022-10-04T13:04:32.689Z,23.70
2022-10-04T13:08:18.541Z,23.90
2022-10-04T13:15:15.649Z,24.30
2022-10-04T13:17:57.839Z,24.10
2022-10-04T13:20:43.374Z,24.60
2022-10-04T13:23:23.519Z,24.60
2022-10-04T13:26:18.275Z,24.90
2022-10-04T13:29:08.980Z,25.60
2022-10-04T13:31:45.944Z,26.20
2022-10-04T13:34:36.936Z,27.20
2022-10-04T13:37:36.437Z,26.80
2022-10-04T13:40:38.243Z,27.10
2022-10-04T13:43:24.491Z,26.70
2022-10-04T13:46:28.741Z,27.20
2022-10-04T13:49:18.625Z,27.10
2022-10-04T13:52:26.057Z,26.80
2022-10-04T13:55:36.018Z,26.70
2022-10-04T13:58:35.600Z,26.60
2022-10-04T14:01:30.041Z,26.10
2022-10-04T14:04:28.485Z,25.90
2022-10-04T14:07:04.633Z,25.60
2022-10-04T14:09:51.051Z,26.20
2022-10-04T14:12:55.754Z,27.30
2022-10-04T14:15:42.186Z,26.40
2022-10-04T14:18:48.243Z,26.60
2022-10-04T14:21:37.799Z,28.40
2022-10-04T14:24:26.509Z,28.40
2022-10-04T14:27:39.394Z,28.70
2022-10-04T14:30:12.496Z,27.60
2022-10-04T14:33:17.276Z,27.60
2022-10-04T14:36:10.024Z,26.40
2022-10-04T14:39:02.370Z,25.60
2022-10-04T14:41:50.876Z,26.10
2022-10-04T14:45:21.640Z,26.30
2022-10-04T14:48:35.865Z,27.90
2022-10-04T14:51:39.810Z,26.50
2022-10-04T14:54:53.280Z,25.90
2022-10-04T14:58:04.244Z,25.40
2022-10-04T15:01:07.375Z,25.70
2022-10-04T15:03:57.778Z,25.40
2022-10-04T15:06:50.027Z,24.70
2022-10-04T15:10:14.963Z,25.00
2022-10-04T15:13:09.921Z,25.40
2022-10-04T15:15:36.935Z,25.50
2022-10-04T15:18:53.089Z,25.80
2022-10-04T15:21:56.577Z,26.10
2022-10-04T15:24:42.497Z,25.70
2022-10-04T15:27:40.629Z,26.90
2022-10-04T15:30:32.230Z,25.50
2022-10-04T15:33:37.409Z,25.00
2022-10-04T15:36:32.331Z,24.50
2022-10-04T15:39:45.946Z,24.70
2022-10-04T15:42:29.514Z,25.30
2022-10-04T15:48:52.276Z,25.90
2022-10-04T15:52:03.378Z,25.90
2022-10-04T15:59:08.592Z,25.00
2022-10-04T16:06:30.885Z,23.90
2022-10-04T17:50:41.820Z,12.20
2022-10-04T17:54:05.166Z,12.10
2022-10-04T17:58:18.302Z,11.90
2022-10-04T18:00:53.278Z,11.80
2022-10-04T18:03:47.768Z,11.60
2022-10-04T18:06:38.071Z,11.70
2022-10-04T18:09:50.116Z,11.60
2022-10-04T18:12:49.657Z,11.50
2022-10-04T18:15:30.202Z,11.50
2022-10-04T18:18:20.758Z,11.50
2022-10-04T18:20:53.846Z,11.50
2022-10-04T18:23:42.669Z,11.40
2022-10-04T18:26:23.560Z,11.30
2022-10-04T18:28:54.557Z,11.30
2022-10-04T18:31:30.728Z,11.30
2022-10-04T18:34:19.136Z,11.20
2022-10-04T18:37:20.147Z,11.20
2022-10-04T18:39:54.629Z,11.10
2022-10-04T18:42:29.414Z,11.10
2022-10-04T18:45:01.675Z,11.10
2022-10-04T18:47:40.273Z,11.20
2022-10-04T18:50:24.474Z,11.20
2022-10-04T18:53:25.344Z,11.10
2022-10-04T18:55:59.568Z,11.10
2022-10-04T18:59:13.143Z,11.00
2022-10-04T19:02:00.966Z,10.90
2022-10-04T19:04:49.813Z,10.90
2022-10-04T19:07:23.917Z,10.80
2022-10-04T19:10:12.068Z,10.80
2022-10-04T19:12:50.976Z,10.70
2022-10-04T19:15:26.530Z,10.70
2022-10-04T19:18:12.197Z,10.70
2022-10-04T19:20:41.780Z,10.60
2022-10-04T19:23:18.196Z,10.60
2022-10-04T19:26:09.891Z,10.70
2022-10-04T19:28:37.688Z,10.70
2022-10-04T19:31:29.098Z,10.60
2022-10-04T19:34:23.856Z,10.50
2022-10-04T19:36:56.360Z,10.40
2022-10-04T19:40:13.290Z,10.30
2022-10-04T19:42:51.769Z,10.30
2022-10-04T19:45:25.084Z,10.30
2022-10-04T19:47:59.126Z,10.20
2022-10-04T19:50:31.781Z,10.20
2022-10-04T19:53:18.871Z,10.10
2022-10-04T19:55:59.421Z,10.10
2022-10-04T19:58:46.934Z,10.10
2022-10-04T20:01:23.589Z,10.00
2022-10-04T20:04:10.840Z,10.00
2022-10-04T20:06:49.871Z,10.00
2022-10-04T20:09:37.358Z,10.10
2022-10-04T20:12:05.572Z,10.10
2022-10-04T20:14:32.426Z,10.20
2022-10-04T20:17:01.868Z,10.20
2022-10-04T20:19:28.620Z,10.20
2022-10-04T20:22:07.407Z,10.30
2022-10-04T20:24:37.098Z,10.30
2022-10-04T20:27:36.352Z,10.30
2022-10-04T20:30:12.518Z,10.20
2022-10-04T20:32:39.783Z,10.20
2022-10-04T20:35:33.279Z,10.10
2022-10-04T20:38:27.201Z,10.00
2022-10-04T20:40:47.461Z,10.00
2022-10-04T20:43:15.538Z,10.00
2022-10-04T20:45:46.330Z,9.90
2022-10-04T20:48:21.575Z,9.90
2022-10-04T20:50:52.281Z,9.90
2022-10-04T20:53:21.255Z,9.90
2022-10-04T20:55:49.302Z,9.90
2022-10-04T20:58:32.985Z,9.90
2022-10-04T21:01:12.744Z,9.90
2022-10-04T21:03:39.860Z,9.90
2022-10-04T21:06:11.983Z,9.90
2022-10-04T21:08:39.130Z,9.90
2022-10-04T21:11:19.100Z,9.90
2022-10-04T21:13:55.568Z,9.90
2022-10-04T21:16:39.361Z,9.90
2022-10-04T21:19:35.585Z,9.80
2022-10-04T21:22:18.399Z,9.90
2022-10-04T21:24:51.475Z,9.90
2022-10-04T21:27:38.918Z,9.90
2022-10-04T21:30:12.689Z,9.90
2022-10-04T21:32:39.735Z,9.90
2022-10-04T21:35:08.282Z,9.90
2022-10-04T21:37:35.631Z,9.90
2022-10-04T21:40:03.761Z,9.80
2022-10-04T21:42:30.599Z,9.80
2022-10-04T21:44:57.432Z,9.70
2022-10-04T21:47:24.331Z,9.60
2022-10-04T21:49:55.228Z,9.60
2022-10-04T21:52:22.247Z,9.50
2022-10-04T21:54:49.033Z,9.40
2022-10-04T21:57:15.863Z,9.40
2022-10-04T21:59:42.651Z,9.40
2022-10-04T22:02:09.561Z,9.30
2022-10-04T22:04:38.279Z,9.30
2022-10-04T22:07:05.326Z,9.20
2022-10-04T22:09:33.226Z,9.20
2022-10-04T22:12:00.013Z,9.10
2022-10-04T22:14:26.788Z,9.10
2022-10-04T22:16:53.613Z,9.10
2022-10-04T22:19:20.428Z,9.10
2022-10-04T22:21:47.234Z,9.00
2022-10-04T22:24:19.799Z,9.00
2022-10-04T22:26:47.347Z,9.00
2022-10-04T22:29:16.293Z,8.90
2022-10-04T22:31:50.711Z,8.90
2022-10-04T22:34:20.829Z,8.90
2022-10-04T22:36:49.953Z,8.90
2022-10-04T22:39:20.946Z,8.90
2022-10-04T22:41:53.060Z,8.90
2022-10-04T22:44:36.443Z,8.80
2022-10-04T22:47:05.156Z,8.90
2022-10-04T22:49:34.551Z,8.90
2022-10-04T22:52:06.485Z,8.90
2022-10-04T22:54:35.169Z,8.90
2022-10-04T22:57:02.253Z,8.90
2022-10-04T22:59:49.624Z,8.90
2022-10-04T23:02:29.613Z,8.80
2022-10-04T23:05:15.138Z,8.80
2022-10-04T23:07:46.228Z,8.80
2022-10-04T23:10:14.888Z,8.70
2022-10-04T23:12:50.542Z,8.60
2022-10-04T23:15:19.926Z,8.60
2022-10-04T23:17:54.641Z,8.60
2022-10-04T23:20:22.237Z,8.60
2022-10-04T23:22:51.896Z,8.50
2022-10-04T23:25:37.298Z,8.50
2022-10-04T23:28:12.999Z,8.50
2022-10-04T23:30:40.104Z,8.50
2022-10-04T23:33:17.776Z,8.50
2022-10-04T23:35:44.641Z,8.50
2022-10-04T23:38:16.823Z,8.50
2022-10-04T23:40:44.679Z,8.40
2022-10-04T23:43:18.224Z,8.40
2022-10-04T23:45:45.287Z,8.40
2022-10-04T23:48:18.524Z,8.40
2022-10-04T23:50:45.356Z,8.40
2022-10-04T23:53:22.792Z,8.30
2022-10-04T23:55:49.748Z,8.30
2022-10-04T23:58:20.416Z,8.30
